createdAt,value
2019-05-26T00:01:20.965Z,10.67
2019-05-26T00:03:53.998Z,10.67
2019-05-26T00:06:29.751Z,10.63
2019-05-26T00:09:03.143Z,10.66
2019-05-26T00:11:36.211Z,10.62
2019-05-26T00:14:09.249Z,10.61
2019-05-26T00:16:42.423Z,10.56
2019-05-26T00:19:15.401Z,10.47
2019-05-26T00:21:48.545Z,10.38
2019-05-26T00:24:21.851Z,10.38
2019-05-26T00:26:54.924Z,10.27
2019-05-26T00:29:27.838Z,10.27
2019-05-26T00:32:01.121Z,10.26
2019-05-26T00:34:34.124Z,10.26
2019-05-26T00:37:07.211Z,10.26
2019-05-26T00:39:40.221Z,10.28
2019-05-26T00:42:13.392Z,10.32
2019-05-26T00:44:46.766Z,10.32
2019-05-26T00:47:19.777Z,10.33
2019-05-26T00:49:53.238Z,10.32
2019-05-26T00:52:26.967Z,10.32
2019-05-26T00:55:00.017Z,10.29
2019-05-26T00:57:33.359Z,10.29
2019-05-26T01:00:07.126Z,10.29
2019-05-26T01:02:40.289Z,10.28
2019-05-26T01:05:13.547Z,10.30
2019-05-26T01:07:47.392Z,10.30
2019-05-26T01:10:20.547Z,10.25
2019-05-26T01:12:53.483Z,10.26
2019-05-26T01:15:26.553Z,10.26
2019-05-26T01:17:59.599Z,10.23
2019-05-26T01:20:32.658Z,10.24
2019-05-26T01:23:05.623Z,10.28
2019-05-26T01:25:38.765Z,10.26
2019-05-26T01:28:11.784Z,10.27
2019-05-26T01:30:45.113Z,10.27
2019-05-26T01:33:18.438Z,10.27
2019-05-26T01:35:51.908Z,10.22
2019-05-26T01:38:25.512Z,10.22
2019-05-26T01:40:58.471Z,10.18
2019-05-26T01:43:31.393Z,10.12
2019-05-26T01:46:04.497Z,10.12
2019-05-26T01:48:37.820Z,10.05
2019-05-26T01:51:10.930Z,10.05
2019-05-26T01:53:44.117Z,10.08
2019-05-26T01:56:17.105Z,10.07
2019-05-26T01:58:50.403Z,10.07
2019-05-26T02:01:23.373Z,10.07
2019-05-26T02:03:56.297Z,10.04
2019-05-26T02:06:29.345Z,10.04
2019-05-26T02:09:04.323Z,10.04
2019-05-26T02:11:37.302Z,10.00
2019-05-26T02:14:14.235Z,9.96
2019-05-26T02:16:45.166Z,9.96
2019-05-26T02:19:18.188Z,9.94
2019-05-26T02:21:51.136Z,9.93
2019-05-26T02:24:24.054Z,9.94
2019-05-26T02:26:57.072Z,9.94
2019-05-26T02:29:30.029Z,9.90
2019-05-26T02:32:03.031Z,9.90
2019-05-26T02:34:35.993Z,9.93
2019-05-26T02:37:08.972Z,9.94
2019-05-26T02:39:42.080Z,9.94
2019-05-26T02:48:29.684Z,9.98
2019-05-26T02:51:02.900Z,9.96
2019-05-26T02:53:35.841Z,9.95
2019-05-26T02:56:09.103Z,9.95
2019-05-26T02:58:42.085Z,9.97
2019-05-26T03:01:15.154Z,9.94
2019-05-26T03:03:48.195Z,9.98
2019-05-26T03:06:22.931Z,10.00
2019-05-26T03:08:57.831Z,9.98
2019-05-26T03:11:33.787Z,9.98
2019-05-26T03:14:08.247Z,9.99
2019-05-26T03:16:42.867Z,10.02
2019-05-26T03:19:18.282Z,10.04
2019-05-26T03:21:54.242Z,10.05
2019-05-26T03:24:28.818Z,10.07
2019-05-26T03:27:01.828Z,10.06
2019-05-26T03:29:34.938Z,10.08
2019-05-26T03:32:08.247Z,10.09
2019-05-26T03:34:41.313Z,10.11
2019-05-26T03:37:14.294Z,10.15
2019-05-26T03:39:47.278Z,10.18
2019-05-26T03:42:20.232Z,10.19
2019-05-26T03:44:53.597Z,10.21
2019-05-26T03:47:26.563Z,10.26
2019-05-26T03:49:59.675Z,10.29
2019-05-26T03:52:32.635Z,10.30
2019-05-26T03:55:06.001Z,10.31
2019-05-26T03:57:39.176Z,10.39
2019-05-26T04:00:12.463Z,10.41
2019-05-26T04:02:45.737Z,10.43
2019-05-26T04:05:18.780Z,10.50
2019-05-26T04:07:51.789Z,10.57
2019-05-26T04:10:24.748Z,10.67
2019-05-26T04:12:57.719Z,10.70
2019-05-26T04:15:30.750Z,10.73
2019-05-26T04:18:03.747Z,10.89
2019-05-26T04:20:37.208Z,10.91
2019-05-26T04:23:10.165Z,11.04
2019-05-26T04:25:43.136Z,11.17
2019-05-26T04:28:16.217Z,11.19
2019-05-26T04:30:49.253Z,11.27
2019-05-26T04:33:22.170Z,11.23
2019-05-26T04:35:55.132Z,11.19
2019-05-26T04:38:28.163Z,11.23
2019-05-26T04:41:01.430Z,11.31
2019-05-26T04:43:34.357Z,11.34
2019-05-26T04:46:07.333Z,11.37
2019-05-26T04:48:40.234Z,11.37
2019-05-26T04:51:13.564Z,11.44
2019-05-26T04:53:46.508Z,11.46
2019-05-26T04:56:19.547Z,11.53
2019-05-26T04:58:52.833Z,11.58
2019-05-26T05:01:25.778Z,11.63
2019-05-26T05:03:58.756Z,11.67
2019-05-26T05:06:31.729Z,11.76
2019-05-26T05:09:06.814Z,11.76
2019-05-26T05:11:39.768Z,11.88
2019-05-26T05:14:12.807Z,11.87
2019-05-26T05:16:46.122Z,11.89
2019-05-26T05:19:19.118Z,11.89
2019-05-26T05:21:52.159Z,11.92
2019-05-26T05:24:25.098Z,12.01
2019-05-26T05:26:58.090Z,12.20
2019-05-26T05:29:31.024Z,12.28
2019-05-26T05:32:04.106Z,12.40
2019-05-26T05:34:37.051Z,12.43
2019-05-26T05:37:10.144Z,12.46
2019-05-26T05:39:43.044Z,12.48
2019-05-26T05:42:16.061Z,12.53
2019-05-26T05:44:49.027Z,12.73
2019-05-26T05:47:21.968Z,12.85
2019-05-26T05:49:54.926Z,13.08
2019-05-26T05:52:27.873Z,13.17
2019-05-26T05:55:00.898Z,13.21
2019-05-26T05:57:33.943Z,13.52
2019-05-26T06:00:07.856Z,13.52
2019-05-26T06:02:40.839Z,13.90
2019-05-26T06:05:14.334Z,14.05
2019-05-26T06:07:47.284Z,14.01
2019-05-26T06:10:20.364Z,14.04
2019-05-26T06:12:53.290Z,13.90
2019-05-26T06:15:26.979Z,13.96
2019-05-26T06:18:00.075Z,13.96
2019-05-26T06:20:33.077Z,13.98
2019-05-26T06:23:06.017Z,14.30
2019-05-26T06:25:39.116Z,14.30
2019-05-26T06:28:12.128Z,14.58
2019-05-26T06:30:45.036Z,14.58
2019-05-26T06:33:18.022Z,14.51
2019-05-26T06:35:51.265Z,14.61
2019-05-26T06:38:24.286Z,14.59
2019-05-26T06:40:57.217Z,15.14
2019-05-26T06:43:30.253Z,15.62
2019-05-26T06:46:03.303Z,15.62
2019-05-26T06:48:36.229Z,15.81
2019-05-26T06:51:09.152Z,15.73
2019-05-26T06:53:42.117Z,15.85
2019-05-26T06:56:14.995Z,15.78
2019-05-26T06:58:47.959Z,15.37
2019-05-26T07:01:20.891Z,15.36
2019-05-26T07:03:53.800Z,15.22
2019-05-26T07:06:26.728Z,15.51
2019-05-26T07:08:59.640Z,16.04
2019-05-26T07:11:47.111Z,16.49
2019-05-26T07:14:07.325Z,16.49
2019-05-26T07:16:40.294Z,16.88
2019-05-26T07:19:13.203Z,17.00
2019-05-26T07:21:46.096Z,17.00
2019-05-26T07:24:19.036Z,17.40
2019-05-26T07:26:51.966Z,17.45
2019-05-26T07:29:24.884Z,17.45
2019-05-26T07:31:58.070Z,17.40
2019-05-26T07:34:31.269Z,17.51
2019-05-26T07:37:04.217Z,17.69
2019-05-26T07:39:37.178Z,17.69
2019-05-26T07:42:11.353Z,17.62
2019-05-26T07:44:44.535Z,17.50
2019-05-26T07:47:17.440Z,18.24
2019-05-26T07:49:50.368Z,18.63
2019-05-26T07:52:23.291Z,18.63
2019-05-26T07:54:56.211Z,18.93
2019-05-26T07:57:29.062Z,18.58
2019-05-26T08:00:02.191Z,18.58
2019-05-26T08:02:35.121Z,18.29
2019-05-26T08:05:09.294Z,18.43
2019-05-26T08:07:42.341Z,18.31
2019-05-26T08:10:15.689Z,19.04
2019-05-26T08:12:48.667Z,19.14
2019-05-26T08:15:21.846Z,19.14
2019-05-26T08:17:55.581Z,19.35
2019-05-26T08:20:28.925Z,19.35
2019-05-26T08:23:01.920Z,19.67
2019-05-26T08:25:34.880Z,20.46
2019-05-26T08:28:07.806Z,20.46
2019-05-26T08:30:40.722Z,20.77
2019-05-26T08:33:13.754Z,20.69
2019-05-26T08:35:46.775Z,20.76
2019-05-26T08:38:19.775Z,21.16
2019-05-26T08:40:52.653Z,20.44
2019-05-26T08:43:25.980Z,21.23
2019-05-26T08:45:59.001Z,21.82
2019-05-26T08:48:31.961Z,22.12
2019-05-26T08:51:05.291Z,22.52
2019-05-26T08:53:38.560Z,21.69
2019-05-26T08:56:11.516Z,21.57
2019-05-26T08:58:44.466Z,20.93
2019-05-26T09:01:17.381Z,20.58
2019-05-26T09:03:51.902Z,20.58
2019-05-26T09:06:25.141Z,20.57
2019-05-26T09:08:58.034Z,20.58
2019-05-26T09:11:30.954Z,20.58
2019-05-26T09:14:04.169Z,21.09
2019-05-26T09:16:37.169Z,21.26
2019-05-26T09:19:10.309Z,21.33
2019-05-26T09:21:43.369Z,21.14
2019-05-26T09:24:16.310Z,21.33
2019-05-26T09:26:49.248Z,21.26
2019-05-26T09:29:22.121Z,21.26
2019-05-26T09:31:55.290Z,20.63
2019-05-26T09:34:28.168Z,20.59
2019-05-26T09:37:01.156Z,20.59
2019-05-26T09:39:34.145Z,20.30
2019-05-26T09:42:07.226Z,20.46
2019-05-26T09:44:40.045Z,21.05
2019-05-26T09:47:13.052Z,21.05
2019-05-26T09:49:45.883Z,21.63
2019-05-26T09:52:18.741Z,22.37
2019-05-26T09:54:51.666Z,21.76
2019-05-26T09:57:24.750Z,22.22
2019-05-26T09:59:57.592Z,22.18
2019-05-26T10:02:30.526Z,22.62
2019-05-26T10:05:03.994Z,22.62
2019-05-26T10:07:37.252Z,23.03
2019-05-26T10:10:10.635Z,22.09
2019-05-26T10:12:43.513Z,21.88
2019-05-26T10:15:18.133Z,21.80
2019-05-26T10:17:50.984Z,21.72
2019-05-26T10:20:23.955Z,22.38
2019-05-26T10:22:57.159Z,23.19
2019-05-26T10:25:29.994Z,23.19
2019-05-26T10:28:02.962Z,23.22
2019-05-26T10:30:35.905Z,23.18
2019-05-26T10:33:08.837Z,20.94
2019-05-26T10:35:41.687Z,20.47
2019-05-26T10:38:14.672Z,20.36
2019-05-26T10:40:47.896Z,20.42
2019-05-26T10:43:20.755Z,20.84
2019-05-26T10:45:53.630Z,21.13
2019-05-26T10:48:26.509Z,21.57
2019-05-26T10:50:59.323Z,21.25
2019-05-26T10:53:32.338Z,21.01
2019-05-26T10:56:05.174Z,20.68
2019-05-26T10:58:38.355Z,21.17
2019-05-26T11:01:11.523Z,21.76
2019-05-26T11:03:44.439Z,22.19
2019-05-26T11:06:17.259Z,21.44
2019-05-26T11:08:50.390Z,20.78
2019-05-26T11:11:23.249Z,20.78
2019-05-26T11:14:02.828Z,20.61
2019-05-26T11:16:31.251Z,20.66
2019-05-26T11:19:04.409Z,20.62
2019-05-26T11:21:37.257Z,20.44
2019-05-26T11:24:10.175Z,20.40
2019-05-26T11:26:43.027Z,20.18
2019-05-26T11:29:15.877Z,20.12
2019-05-26T11:31:48.730Z,20.63
2019-05-26T11:34:21.597Z,20.86
2019-05-26T11:36:54.463Z,21.12
2019-05-26T11:39:27.397Z,21.12
2019-05-26T11:42:12.393Z,21.54
2019-05-26T11:44:34.872Z,22.18
2019-05-26T11:47:07.708Z,22.28
2019-05-26T11:49:40.585Z,22.28
2019-05-26T11:52:13.420Z,22.11
2019-05-26T11:54:46.314Z,22.27
2019-05-26T11:57:19.141Z,22.56
2019-05-26T11:59:52.026Z,22.74
2019-05-26T12:02:24.820Z,21.78
2019-05-26T12:04:57.681Z,21.05
2019-05-26T12:07:30.508Z,20.80
2019-05-26T12:10:03.893Z,22.02
2019-05-26T12:12:36.833Z,22.02
2019-05-26T12:15:10.341Z,21.50
2019-05-26T12:17:43.166Z,20.98
2019-05-26T12:20:16.403Z,20.73
2019-05-26T12:22:50.059Z,20.86
2019-05-26T12:25:23.178Z,21.46
2019-05-26T12:27:56.015Z,21.46
2019-05-26T12:30:28.923Z,21.74
2019-05-26T12:33:01.823Z,22.14
2019-05-26T12:35:34.657Z,21.63
2019-05-26T12:38:07.484Z,21.55
2019-05-26T12:40:40.825Z,21.77
2019-05-26T12:43:14.000Z,22.14
2019-05-26T12:45:46.855Z,21.76
2019-05-26T12:48:19.785Z,21.59
2019-05-26T12:50:52.675Z,21.74
2019-05-26T12:53:25.656Z,21.51
2019-05-26T12:55:58.538Z,20.98
2019-05-26T12:58:31.373Z,20.70
2019-05-26T13:01:04.292Z,20.90
2019-05-26T13:03:37.457Z,20.90
2019-05-26T13:06:10.403Z,21.05
2019-05-26T13:08:43.229Z,21.19
2019-05-26T13:11:16.159Z,21.19
2019-05-26T13:13:48.981Z,20.98
2019-05-26T13:16:22.334Z,20.95
2019-05-26T13:18:55.162Z,21.02
2019-05-26T13:21:28.032Z,20.95
2019-05-26T13:24:00.890Z,20.99
2019-05-26T13:26:33.734Z,20.72
2019-05-26T13:29:06.574Z,20.77
2019-05-26T13:31:39.713Z,20.67
2019-05-26T13:34:12.579Z,20.95
2019-05-26T13:36:45.503Z,20.63
2019-05-26T13:39:18.336Z,20.63
2019-05-26T13:41:51.203Z,20.55
2019-05-26T13:44:24.029Z,20.57
2019-05-26T13:46:56.874Z,20.57
2019-05-26T13:49:29.691Z,20.42
2019-05-26T13:52:02.658Z,20.28
2019-05-26T13:54:35.491Z,20.21
2019-05-26T13:57:08.413Z,20.38
2019-05-26T13:59:41.252Z,20.38
2019-05-26T14:02:14.184Z,20.46
2019-05-26T14:04:47.007Z,20.34
2019-05-26T14:07:19.843Z,20.34
2019-05-26T14:09:52.746Z,20.57
2019-05-26T14:12:25.866Z,20.57
2019-05-26T14:14:59.193Z,20.48
2019-05-26T14:17:33.754Z,20.44
2019-05-26T14:20:07.433Z,20.41
2019-05-26T14:22:40.290Z,20.46
2019-05-26T14:25:15.608Z,20.46
2019-05-26T14:27:48.509Z,20.44
2019-05-26T14:30:21.403Z,20.31
2019-05-26T14:32:54.247Z,20.22
2019-05-26T14:35:27.140Z,20.02
2019-05-26T14:38:00.249Z,20.03
2019-05-26T14:40:33.180Z,20.03
2019-05-26T14:43:06.182Z,19.95
2019-05-26T14:45:52.360Z,19.76
2019-05-26T14:48:13.723Z,19.76
2019-05-26T14:50:46.546Z,19.69
2019-05-26T14:53:20.151Z,19.77
2019-05-26T14:55:52.977Z,19.76
2019-05-26T14:58:25.887Z,19.78
2019-05-26T15:00:58.723Z,19.77
2019-05-26T15:03:31.578Z,19.77
2019-05-26T15:06:06.178Z,19.61
2019-05-26T15:08:39.388Z,19.61
2019-05-26T15:11:12.219Z,19.65
2019-05-26T15:13:45.077Z,19.35
2019-05-26T15:16:17.985Z,19.18
2019-05-26T15:18:50.816Z,19.19
2019-05-26T15:21:23.637Z,19.30
2019-05-26T15:23:56.482Z,19.60
2019-05-26T15:26:29.686Z,19.74
2019-05-26T15:29:02.633Z,19.80
2019-05-26T15:31:35.457Z,20.01
2019-05-26T15:34:08.301Z,19.97
2019-05-26T15:36:41.520Z,20.00
2019-05-26T15:39:14.352Z,19.97
2019-05-26T15:41:47.182Z,19.86
2019-05-26T15:44:20.024Z,19.86
2019-05-26T15:46:52.877Z,19.93
2019-05-26T15:49:25.790Z,19.74
2019-05-26T15:51:58.878Z,19.64
2019-05-26T15:54:31.723Z,19.64
2019-05-26T15:57:04.704Z,19.59
2019-05-26T15:59:37.539Z,19.43
2019-05-26T16:02:10.437Z,19.43
2019-05-26T16:04:45.519Z,19.32
2019-05-26T16:07:18.161Z,19.28
2019-05-26T16:09:51.183Z,19.26
2019-05-26T16:12:24.393Z,19.15
2019-05-26T16:14:57.283Z,19.14
2019-05-26T16:17:30.234Z,19.12
2019-05-26T16:20:03.946Z,19.12
2019-05-26T16:22:36.985Z,19.05
2019-05-26T16:25:10.417Z,19.07
2019-05-26T16:27:44.050Z,19.07
2019-05-26T16:30:18.115Z,18.98
2019-05-26T16:32:51.004Z,19.16
2019-05-26T16:35:23.891Z,19.16
2019-05-26T16:37:56.808Z,19.12
2019-05-26T16:40:29.803Z,19.12
2019-05-26T16:43:02.782Z,18.95
2019-05-26T16:45:37.111Z,18.97
2019-05-26T16:48:10.103Z,18.90
2019-05-26T16:50:43.177Z,18.93
2019-05-26T16:53:16.165Z,18.99
2019-05-26T16:55:49.077Z,18.97
2019-05-26T16:58:21.944Z,18.97
2019-05-26T17:00:55.119Z,18.86
2019-05-26T17:03:28.376Z,18.71
2019-05-26T17:06:08.034Z,18.71
2019-05-26T17:08:35.943Z,18.62
2019-05-26T17:11:09.121Z,18.56
2019-05-26T17:13:42.025Z,18.47
2019-05-26T17:16:15.082Z,18.24
2019-05-26T17:18:48.186Z,18.04
2019-05-26T17:21:21.160Z,18.04
2019-05-26T17:23:54.227Z,18.00
2019-05-26T17:26:27.377Z,17.89
2019-05-26T17:29:00.252Z,17.81
2019-05-26T17:31:33.183Z,17.76
2019-05-26T17:34:06.518Z,17.76
2019-05-26T17:36:39.382Z,17.81
2019-05-26T17:39:12.353Z,17.78
2019-05-26T17:41:45.658Z,17.82
2019-05-26T17:44:18.582Z,17.83
2019-05-26T17:46:51.553Z,17.83
2019-05-26T17:49:24.435Z,17.74
2019-05-26T17:51:57.343Z,17.66
2019-05-26T17:54:30.242Z,17.64
2019-05-26T17:57:03.312Z,17.77
2019-05-26T17:59:36.271Z,17.71
2019-05-26T18:02:09.288Z,17.65
2019-05-26T18:04:42.215Z,17.63
2019-05-26T18:07:15.177Z,17.63
2019-05-26T18:09:48.525Z,17.67
2019-05-26T18:12:21.433Z,17.66
2019-05-26T18:14:54.336Z,17.66
2019-05-26T18:17:27.259Z,17.56
2019-05-26T18:20:00.498Z,17.56
2019-05-26T18:22:33.493Z,17.42
2019-05-26T18:25:07.504Z,17.41
2019-05-26T18:27:40.649Z,17.04
2019-05-26T18:30:15.860Z,17.04
2019-05-26T18:32:48.698Z,16.96
2019-05-26T18:35:21.594Z,16.88
2019-05-26T18:37:54.534Z,16.83
2019-05-26T18:40:27.363Z,16.78
2019-05-26T18:43:00.229Z,16.60
2019-05-26T18:45:33.066Z,16.20
2019-05-26T18:48:06.071Z,15.90
2019-05-26T18:50:38.914Z,15.71
2019-05-26T18:53:11.968Z,15.59
2019-05-26T18:55:44.873Z,15.59
2019-05-26T18:58:17.735Z,15.59
2019-05-26T19:00:50.782Z,15.57
2019-05-26T19:03:23.899Z,15.55
2019-05-26T19:05:56.806Z,15.41
2019-05-26T19:08:29.944Z,15.41
2019-05-26T19:11:02.851Z,15.28
2019-05-26T19:13:35.723Z,15.13
2019-05-26T19:16:08.631Z,15.06
2019-05-26T19:18:41.482Z,15.06
2019-05-26T19:21:14.392Z,15.06
2019-05-26T19:23:47.294Z,15.05
2019-05-26T19:26:20.207Z,14.98
2019-05-26T19:28:53.339Z,14.98
2019-05-26T19:31:26.315Z,14.95
2019-05-26T19:33:59.147Z,14.86
2019-05-26T19:36:31.968Z,14.86
2019-05-26T19:39:07.153Z,14.86
2019-05-26T19:41:39.996Z,14.81
2019-05-26T19:44:12.830Z,14.80
2019-05-26T19:46:45.729Z,14.83
2019-05-26T19:49:18.587Z,14.83
2019-05-26T19:51:51.445Z,14.86
2019-05-26T19:54:24.671Z,14.87
2019-05-26T19:56:57.578Z,14.87
2019-05-26T19:59:30.509Z,14.89
2019-05-26T20:02:17.467Z,14.88
2019-05-26T20:04:38.118Z,14.84
2019-05-26T20:07:11.436Z,14.76
2019-05-26T20:09:44.284Z,14.76
2019-05-26T20:12:17.463Z,14.69
2019-05-26T20:14:50.319Z,14.61
2019-05-26T20:17:23.553Z,14.35
2019-05-26T20:19:56.402Z,14.35
2019-05-26T20:22:29.306Z,14.24
2019-05-26T20:25:02.301Z,14.21
2019-05-26T20:27:35.135Z,14.14
2019-05-26T20:30:10.073Z,14.14
2019-05-26T20:32:42.931Z,14.09
2019-05-26T20:35:15.936Z,14.08
2019-05-26T20:37:48.766Z,14.08
2019-05-26T20:40:21.884Z,14.04
2019-05-26T20:42:55.169Z,14.04
2019-05-26T20:45:27.995Z,13.85
2019-05-26T20:48:00.826Z,13.82
2019-05-26T20:50:33.688Z,13.78
2019-05-26T20:53:06.518Z,13.78
2019-05-26T20:55:39.370Z,13.75
2019-05-26T20:58:12.259Z,13.71
2019-05-26T21:00:45.125Z,13.72
2019-05-26T21:03:17.945Z,13.72
2019-05-26T21:05:50.798Z,13.71
2019-05-26T21:08:23.626Z,13.75
2019-05-26T21:10:56.476Z,13.78
2019-05-26T21:13:29.307Z,13.78
2019-05-26T21:16:02.312Z,13.78
2019-05-26T21:18:35.189Z,13.81
2019-05-26T21:21:08.044Z,13.84
2019-05-26T21:23:40.909Z,13.84
2019-05-26T21:26:13.750Z,13.83
2019-05-26T21:28:46.661Z,13.79
2019-05-26T21:31:19.509Z,13.79
2019-05-26T21:33:52.465Z,13.66
2019-05-26T21:36:25.388Z,13.63
2019-05-26T21:38:58.537Z,13.56
2019-05-26T21:41:31.409Z,13.56
2019-05-26T21:44:04.679Z,13.50
2019-05-26T21:46:37.612Z,13.50
2019-05-26T21:49:10.443Z,13.46
2019-05-26T21:51:43.285Z,13.42
2019-05-26T21:54:16.129Z,13.42
2019-05-26T21:56:48.975Z,13.44
2019-05-26T21:59:21.804Z,13.46
2019-05-26T22:01:54.744Z,13.46
2019-05-26T22:04:27.598Z,13.49
2019-05-26T22:07:00.490Z,13.50
2019-05-26T22:09:33.640Z,13.50
2019-05-26T22:12:06.606Z,13.55
2019-05-26T22:14:39.743Z,13.57
2019-05-26T22:17:12.770Z,13.66
2019-05-26T22:19:45.605Z,13.66
2019-05-26T22:22:18.456Z,13.72
2019-05-26T22:24:51.525Z,13.72
2019-05-26T22:27:24.660Z,13.72
2019-05-26T22:29:57.491Z,13.74
2019-05-26T22:32:30.343Z,13.67
2019-05-26T22:35:03.620Z,13.67
2019-05-26T22:37:36.669Z,13.70
2019-05-26T22:40:09.671Z,13.74
2019-05-26T22:42:42.517Z,13.74
2019-05-26T22:45:15.592Z,13.74
2019-05-26T22:47:48.448Z,13.74
2019-05-26T22:50:21.567Z,13.72
2019-05-26T22:52:54.421Z,13.71
2019-05-26T22:55:27.252Z,13.70
2019-05-26T22:58:00.103Z,13.67
2019-05-26T23:00:33.094Z,13.67
2019-05-26T23:03:06.101Z,13.64
2019-05-26T23:05:39.028Z,13.53
2019-05-26T23:08:11.880Z,13.53
2019-05-26T23:10:44.717Z,13.33
2019-05-26T23:13:17.575Z,13.33
2019-05-26T23:15:50.484Z,13.22
2019-05-26T23:18:23.344Z,13.17
2019-05-26T23:20:56.267Z,12.98
2019-05-26T23:23:29.125Z,12.99
2019-05-26T23:26:02.033Z,12.99
2019-05-26T23:28:34.908Z,12.95
2019-05-26T23:31:07.812Z,12.96
2019-05-26T23:33:41.002Z,12.94
2019-05-26T23:36:13.853Z,12.94
2019-05-26T23:38:46.705Z,12.92
2019-05-26T23:41:19.543Z,12.95
2019-05-26T23:43:52.404Z,12.95
2019-05-26T23:46:25.251Z,12.98
2019-05-26T23:48:58.400Z,12.97
2019-05-26T23:51:31.249Z,12.98
2019-05-26T23:54:04.268Z,13.00
2019-05-26T23:56:37.098Z,13.00
2019-05-26T23:59:09.955Z,13.03
